Terminal Aerodrome Forecast
Issued by NWS

Home | Current Version | Previous Version | Text Only | Print | Product List | Glossary On
Versions: 1 2 3 4 5 6 7 8 9 10 11 12 13 14 15 16
000
FTUS42 KMLB 240155 AAA
TAFTIX
TAF AMD
KTIX 240155Z 2402/2424 08009KT P6SM VCSH SCT025 BKN120
     FM240600 06005KT P6SM VCSH SCT020 BKN050
     FM241400 05011KT P6SM VCSH SCT025 SCT120
     FM242000 04012G18KT P6SM SCT035 SCT120
      AMD NOT SKED TIL 241100=

USA.gov is the U.S. government's official web portal to all federal, state and local government web resources and services.